createdAt,value
2022-08-14T00:02:08.628Z,100947.09
2022-08-14T00:05:17.414Z,100945.25
2022-08-14T00:08:44.490Z,100948.75
2022-08-14T00:11:45.258Z,100951.84
2022-08-14T00:14:48.488Z,100952.84
2022-08-14T00:17:58.239Z,100948.16
2022-08-14T00:21:01.607Z,100944.31
2022-08-14T00:24:08.159Z,100936.41
2022-08-14T00:27:13.048Z,100936.28
2022-08-14T00:30:20.263Z,100931.34
2022-08-14T00:33:23.269Z,100933.06
2022-08-14T00:36:50.976Z,100932.75
2022-08-14T00:39:55.667Z,100926.28
2022-08-14T00:42:58.794Z,100921.13
2022-08-14T00:46:08.021Z,100920.03
2022-08-14T00:49:14.529Z,100924.88
2022-08-14T00:52:18.706Z,100919.91
2022-08-14T00:55:23.483Z,100911.81
2022-08-14T00:58:33.391Z,100904.38
2022-08-14T01:01:37.429Z,100897.63
2022-08-14T01:04:53.397Z,100895.97
2022-08-14T01:07:59.343Z,100891.34
2022-08-14T01:11:05.587Z,100897.22
2022-08-14T01:14:25.382Z,100887.13
2022-08-14T01:17:50.036Z,100892.34
2022-08-14T01:21:08.867Z,100882.75
2022-08-14T01:24:24.685Z,100877.78
2022-08-14T01:27:56.832Z,100882.09
2022-08-14T01:30:59.420Z,100878.75
2022-08-14T01:35:17.635Z,100884.00
2022-08-14T01:37:29.568Z,100884.00
2022-08-14T01:40:41.589Z,100882.34
2022-08-14T01:43:56.691Z,100882.16
2022-08-14T01:47:02.406Z,100882.97
2022-08-14T01:50:11.182Z,100876.03
2022-08-14T01:53:17.801Z,100881.97
2022-08-14T01:56:24.546Z,100876.50
2022-08-14T01:59:37.997Z,100882.28
2022-08-14T02:02:42.534Z,100882.13
2022-08-14T02:05:49.929Z,100882.94
2022-08-14T02:08:55.239Z,100872.97
2022-08-14T02:12:00.786Z,100874.31
2022-08-14T02:15:09.233Z,100873.34
2022-08-14T02:18:15.091Z,100874.59
2022-08-14T02:21:23.420Z,100866.03
2022-08-14T02:24:39.014Z,100868.59
2022-08-14T02:28:22.181Z,100869.56
2022-08-14T02:31:09.455Z,100861.22
2022-08-14T02:34:21.922Z,100865.22
2022-08-14T02:37:46.389Z,100861.88
2022-08-14T02:40:51.537Z,100859.91
2022-08-14T02:44:00.667Z,100861.53
2022-08-14T02:47:07.098Z,100859.56
2022-08-14T02:50:17.888Z,100859.38
2022-08-14T02:53:21.119Z,100851.28
2022-08-14T02:56:30.334Z,100846.84
2022-08-14T02:59:50.931Z,100839.38
2022-08-14T03:02:59.139Z,100841.38
2022-08-14T03:06:03.063Z,100838.06
2022-08-14T03:09:06.564Z,100830.63
2022-08-14T03:12:10.818Z,100828.16
2022-08-14T03:15:16.434Z,100821.56
2022-08-14T03:18:31.697Z,100824.06
2022-08-14T03:21:39.566Z,100826.03
2022-08-14T03:24:43.965Z,100833.13
2022-08-14T03:27:48.280Z,100829.75
2022-08-14T03:31:04.246Z,100830.09
2022-08-14T03:34:14.375Z,100838.88
2022-08-14T03:38:01.703Z,100831.13
2022-08-14T03:40:52.371Z,100830.47
2022-08-14T03:45:27.374Z,100826.53
2022-08-14T03:47:46.209Z,100827.34
2022-08-14T03:50:52.559Z,100828.16
2022-08-14T03:54:02.081Z,100831.47
2022-08-14T03:57:05.860Z,100832.75
2022-08-14T04:00:40.484Z,100825.47
2022-08-14T04:03:37.901Z,100817.22
2022-08-14T04:06:47.512Z,100806.13
2022-08-14T04:09:52.693Z,100796.53
2022-08-14T04:13:03.691Z,100784.44
2022-08-14T04:16:12.366Z,100779.50
2022-08-14T04:19:23.959Z,100771.59
2022-08-14T04:22:27.658Z,100775.25
2022-08-14T04:25:33.802Z,100771.50
2022-08-14T04:29:06.863Z,100757.59
2022-08-14T04:32:58.456Z,100754.19
2022-08-14T04:35:25.624Z,100741.94
2022-08-14T04:39:06.723Z,100741.59
2022-08-14T04:42:29.668Z,100742.56
2022-08-14T04:45:40.938Z,100735.00
2022-08-14T04:48:51.192Z,100731.00
2022-08-14T04:52:04.092Z,100735.09
2022-08-14T04:55:18.657Z,100749.47
2022-08-14T04:58:32.204Z,100764.66
2022-08-14T05:01:40.079Z,100777.97
2022-08-14T05:04:45.162Z,100786.66
2022-08-14T05:08:12.195Z,100775.28
2022-08-14T05:11:36.705Z,100766.13
2022-08-14T05:14:46.845Z,100771.16
2022-08-14T05:18:17.794Z,100759.81
2022-08-14T05:21:59.994Z,100760.09
2022-08-14T05:24:51.408Z,100756.72
2022-08-14T05:28:00.490Z,100753.22
2022-08-14T05:31:07.948Z,100756.16
2022-08-14T05:34:12.140Z,100753.50
2022-08-14T05:37:16.153Z,100755.41
2022-08-14T05:40:20.557Z,100760.19
2022-08-14T05:43:24.318Z,100758.28
2022-08-14T05:46:44.328Z,100766.50
2022-08-14T05:49:49.891Z,100759.34
2022-08-14T05:52:55.245Z,100768.38
2022-08-14T05:56:00.132Z,100770.56
2022-08-14T05:59:03.257Z,100777.56
2022-08-14T06:02:06.975Z,100784.31
2022-08-14T06:05:10.196Z,100795.00
2022-08-14T06:08:21.670Z,100792.25
2022-08-14T06:11:35.719Z,100790.63
2022-08-14T06:14:39.651Z,100804.41
2022-08-14T06:17:47.110Z,100781.13
2022-08-14T06:20:59.024Z,100784.56
2022-08-14T06:24:02.136Z,100778.63
2022-08-14T06:27:09.887Z,100779.06
2022-08-14T06:30:16.408Z,100783.19
2022-08-14T06:33:21.024Z,100780.09
2022-08-14T06:36:25.878Z,100787.63
2022-08-14T06:39:36.968Z,100783.66
2022-08-14T06:42:43.296Z,100784.31
2022-08-14T06:45:54.299Z,100796.91
2022-08-14T06:48:57.684Z,100792.84
2022-08-14T06:52:01.187Z,100801.88
2022-08-14T06:55:05.767Z,100787.97
2022-08-14T06:58:28.894Z,100795.75
2022-08-14T07:01:49.994Z,100784.75
2022-08-14T07:05:10.245Z,100780.91
2022-08-14T07:08:23.264Z,100784.00
2022-08-14T07:11:29.587Z,100782.38
2022-08-14T07:14:34.398Z,100776.47
2022-08-14T07:17:46.560Z,100782.38
2022-08-14T07:20:56.738Z,100776.25
2022-08-14T07:23:59.694Z,100780.38
2022-08-14T07:27:02.659Z,100783.66
2022-08-14T07:30:09.105Z,100777.91
2022-08-14T07:33:35.590Z,100781.25
2022-08-14T07:36:39.693Z,100773.41
2022-08-14T07:40:02.432Z,100768.41
2022-08-14T07:43:14.494Z,100772.28
2022-08-14T07:46:21.293Z,100774.03
2022-08-14T07:49:34.123Z,100774.06
2022-08-14T07:52:40.282Z,100780.59
2022-08-14T07:55:46.429Z,100773.31
2022-08-14T07:59:04.074Z,100772.38
2022-08-14T08:02:19.558Z,100768.34
2022-08-14T08:05:26.828Z,100759.84
2022-08-14T08:08:31.830Z,100773.88
2022-08-14T08:11:37.117Z,100768.06
2022-08-14T08:14:55.698Z,100766.66
2022-08-14T08:18:08.953Z,100767.88
2022-08-14T08:21:23.625Z,100754.19
2022-08-14T08:24:30.496Z,100752.41
2022-08-14T08:27:33.489Z,100755.47
2022-08-14T08:30:49.633Z,100757.47
2022-08-14T08:33:55.058Z,100755.19
2022-08-14T08:37:03.869Z,100750.00
2022-08-14T08:40:11.096Z,100742.47
2022-08-14T08:43:27.543Z,100744.09
2022-08-14T08:46:30.701Z,100743.31
2022-08-14T08:49:43.215Z,100737.97
2022-08-14T08:52:54.351Z,100733.34
2022-08-14T08:55:58.260Z,100727.06
2022-08-14T08:59:01.427Z,100725.38
2022-08-14T09:02:10.497Z,100728.78
2022-08-14T09:05:15.043Z,100727.59
2022-08-14T09:08:30.394Z,100723.56
2022-08-14T09:11:36.257Z,100719.41
2022-08-14T09:14:39.851Z,100715.78
2022-08-14T09:17:44.475Z,100712.38
2022-08-14T09:20:58.827Z,100708.16
2022-08-14T09:24:28.369Z,100699.75
2022-08-14T09:27:25.783Z,100705.47
2022-08-14T09:30:32.374Z,100699.66
2022-08-14T09:33:57.446Z,100693.97
2022-08-14T09:37:23.627Z,100689.66
2022-08-14T09:40:55.229Z,100692.34
2022-08-14T09:44:07.520Z,100693.28
2022-08-14T09:47:11.059Z,100689.63
2022-08-14T09:50:21.250Z,100682.66
2022-08-14T09:54:17.726Z,100673.13
2022-08-14T09:57:10.246Z,100685.72
2022-08-14T10:00:29.230Z,100671.78
2022-08-14T10:03:36.694Z,100669.41
2022-08-14T10:06:45.428Z,100663.88
2022-08-14T10:10:01.969Z,100669.88
2022-08-14T10:13:08.606Z,100667.72
2022-08-14T10:16:21.760Z,100658.25
2022-08-14T10:19:29.258Z,100654.44
2022-08-14T10:23:14.631Z,100649.94
2022-08-14T10:26:08.617Z,100640.97
2022-08-14T10:29:20.145Z,100642.66
2022-08-14T10:32:36.356Z,100642.44
2022-08-14T10:35:48.072Z,100632.72
2022-08-14T10:38:58.948Z,100623.59
2022-08-14T10:42:18.169Z,100617.63
2022-08-14T10:45:26.808Z,100612.03
2022-08-14T10:48:36.883Z,100604.09
2022-08-14T10:51:42.450Z,100604.06
2022-08-14T10:54:48.316Z,100603.63
2022-08-14T10:58:00.752Z,100599.31
2022-08-14T11:01:07.863Z,100594.50
2022-08-14T11:04:25.836Z,100574.66
2022-08-14T11:07:31.813Z,100578.50
2022-08-14T11:10:47.776Z,100579.84
2022-08-14T11:13:58.307Z,100581.09
2022-08-14T11:17:01.542Z,100583.09
2022-08-14T11:20:14.488Z,100585.44
2022-08-14T11:23:22.838Z,100584.53
2022-08-14T11:26:28.031Z,100581.06
2022-08-14T11:29:36.202Z,100579.94
2022-08-14T11:32:42.204Z,100585.28
2022-08-14T11:35:49.845Z,100582.91
2022-08-14T11:38:53.856Z,100574.25
2022-08-14T11:41:58.019Z,100568.59
2022-08-14T11:45:11.366Z,100566.03
2022-08-14T11:49:04.360Z,100564.31
2022-08-14T11:51:54.976Z,100561.69
2022-08-14T11:55:00.479Z,100563.84
2022-08-14T11:58:08.414Z,100563.34
2022-08-14T12:01:12.796Z,100553.09
2022-08-14T12:04:31.650Z,100548.22
2022-08-14T12:07:36.892Z,100546.75
2022-08-14T12:10:59.150Z,100539.81
2022-08-14T12:14:29.145Z,100539.03
2022-08-14T12:17:49.324Z,100531.16
2022-08-14T12:20:54.251Z,100533.06
2022-08-14T12:24:08.526Z,100519.53
2022-08-14T12:27:13.090Z,100522.78
2022-08-14T12:30:37.366Z,100515.22
2022-08-14T12:33:47.074Z,100503.69
2022-08-14T12:37:05.689Z,100511.34
2022-08-14T12:40:19.580Z,100497.22
2022-08-14T12:43:24.023Z,100487.38
2022-08-14T12:46:31.552Z,100494.94
2022-08-14T12:49:36.416Z,100489.53
2022-08-14T12:52:58.694Z,100488.19
2022-08-14T12:56:21.386Z,100489.34
2022-08-14T12:59:33.152Z,100472.28
2022-08-14T13:02:45.894Z,100479.03
2022-08-14T13:05:51.131Z,100464.94
2022-08-14T13:09:00.030Z,100466.16
2022-08-14T13:12:34.932Z,100465.31
2022-08-14T13:15:29.767Z,100448.38
2022-08-14T13:18:34.151Z,100448.03
2022-08-14T13:21:58.506Z,100445.66
2022-08-14T13:25:09.224Z,100439.38
2022-08-14T13:28:30.100Z,100430.69
2022-08-14T13:31:39.367Z,100419.09
2022-08-14T13:34:45.456Z,100409.56
2022-08-14T13:37:53.581Z,100401.50
2022-08-14T13:40:58.929Z,100406.00
2022-08-14T13:44:02.050Z,100396.00
2022-08-14T13:47:06.906Z,100398.59
2022-08-14T13:50:15.692Z,100395.94
2022-08-14T13:53:27.818Z,100392.25
2022-08-14T13:56:41.995Z,100384.84
2022-08-14T13:59:48.698Z,100377.75
2022-08-14T14:02:56.267Z,100377.59
2022-08-14T14:06:02.713Z,100370.72
2022-08-14T14:09:11.463Z,100369.03
2022-08-14T14:12:37.431Z,100355.69
2022-08-14T14:15:48.717Z,100357.31
2022-08-14T14:19:09.429Z,100356.38
2022-08-14T14:22:35.643Z,100343.97
2022-08-14T14:25:51.030Z,100329.34
2022-08-14T14:29:01.646Z,100326.03
2022-08-14T14:32:06.475Z,100321.69
2022-08-14T14:35:15.293Z,100325.66
2022-08-14T14:38:19.846Z,100326.56
2022-08-14T14:41:37.951Z,100327.41
2022-08-14T14:44:43.110Z,100321.69
2022-08-14T14:47:49.211Z,100323.25
2022-08-14T14:50:53.008Z,100319.47
2022-08-14T14:53:57.582Z,100315.25
2022-08-14T14:57:04.496Z,100314.81
2022-08-14T15:00:18.639Z,100320.28
2022-08-14T15:03:23.158Z,100316.91
2022-08-14T15:06:30.303Z,100307.97
2022-08-14T15:09:34.991Z,100305.16
2022-08-14T15:12:56.149Z,100300.50
2022-08-14T15:16:01.467Z,100302.69
2022-08-14T15:19:06.122Z,100287.63
2022-08-14T15:22:10.627Z,100291.28
2022-08-14T15:25:14.722Z,100288.47
2022-08-14T15:28:23.167Z,100294.06
2022-08-14T15:31:26.333Z,100282.38
2022-08-14T15:34:44.342Z,100288.69
2022-08-14T15:37:55.900Z,100287.03
2022-08-14T15:41:02.416Z,100276.78
2022-08-14T15:44:24.738Z,100273.31
2022-08-14T15:47:33.230Z,100274.44
2022-08-14T15:50:43.312Z,100269.69
2022-08-14T15:53:46.670Z,100279.25
2022-08-14T15:57:00.470Z,100268.91
2022-08-14T16:00:43.329Z,100268.53
2022-08-14T16:03:48.289Z,100258.00
2022-08-14T16:06:55.432Z,100266.66
2022-08-14T16:10:27.741Z,100255.78
2022-08-14T16:13:41.292Z,100253.84
2022-08-14T16:16:51.559Z,100248.03
2022-08-14T16:20:06.826Z,100245.31
2022-08-14T16:23:12.342Z,100244.25
2022-08-14T16:26:22.050Z,100249.13
2022-08-14T16:29:35.694Z,100230.22
2022-08-14T16:32:54.582Z,100226.44
2022-08-14T16:36:01.543Z,100223.75
2022-08-14T16:39:08.255Z,100223.47
2022-08-14T16:42:39.108Z,100218.84
2022-08-14T16:45:43.841Z,100220.50
2022-08-14T16:48:55.635Z,100213.72
2022-08-14T16:52:25.006Z,100215.31
2022-08-14T16:55:30.216Z,100203.94
2022-08-14T16:58:34.495Z,100204.75
2022-08-14T17:01:40.554Z,100199.34
2022-08-14T17:04:44.982Z,100202.31
2022-08-14T17:08:32.451Z,100199.84
2022-08-14T17:11:54.599Z,100187.09
2022-08-14T17:15:03.884Z,100192.16
2022-08-14T17:18:22.353Z,100194.84
2022-08-14T17:21:41.123Z,100199.91
2022-08-14T17:24:56.538Z,100187.19
2022-08-14T17:28:49.940Z,100182.81
2022-08-14T17:31:58.590Z,100182.69
2022-08-14T17:35:03.903Z,100181.59
2022-08-14T17:38:38.456Z,100172.06
2022-08-14T17:41:43.394Z,100181.06
2022-08-14T17:44:48.140Z,100180.88
2022-08-14T17:47:52.011Z,100180.03
2022-08-14T17:51:00.405Z,100185.34
2022-08-14T17:54:08.374Z,100181.34
2022-08-14T17:57:14.542Z,100185.34
2022-08-14T18:01:04.862Z,100179.97
2022-08-14T18:04:46.055Z,100191.97
2022-08-14T18:08:40.597Z,100193.19
2022-08-14T18:12:47.940Z,100196.22
2022-08-14T18:16:27.818Z,100205.63
2022-08-14T18:21:23.192Z,100207.69
2022-08-14T18:24:31.676Z,100208.41
2022-08-14T18:28:48.164Z,100206.75
2022-08-14T18:32:01.979Z,100212.03
2022-08-14T18:35:10.979Z,100221.81
2022-08-14T18:38:26.373Z,100216.34
2022-08-14T18:41:46.969Z,100218.72
2022-08-14T18:45:12.732Z,100222.78
2022-08-14T18:48:50.214Z,100223.75
2022-08-14T18:52:18.945Z,100213.81
2022-08-14T18:55:53.958Z,100229.81
2022-08-14T18:58:59.014Z,100233.34
2022-08-14T19:02:43.761Z,100233.00
2022-08-14T19:05:59.423Z,100236.06
2022-08-14T19:09:03.927Z,100236.41
2022-08-14T19:12:07.777Z,100240.16
2022-08-14T19:15:25.987Z,100244.13
2022-08-14T19:18:38.215Z,100243.56
2022-08-14T19:21:44.966Z,100250.44
2022-08-14T19:24:50.589Z,100255.72
2022-08-14T19:28:27.389Z,100255.34
2022-08-14T19:31:42.108Z,100247.94
2022-08-14T19:34:52.740Z,100245.63
2022-08-14T19:37:57.919Z,100247.25
2022-08-14T19:41:02.510Z,100252.88
2022-08-14T19:44:13.142Z,100242.53
2022-08-14T19:47:17.650Z,100243.81
2022-08-14T19:50:38.284Z,100244.06
2022-08-14T19:53:56.387Z,100238.56
2022-08-14T19:56:59.922Z,100231.56
2022-08-14T20:00:28.701Z,100226.09
2022-08-14T20:04:00.089Z,100222.38
2022-08-14T20:07:06.493Z,100232.28
2022-08-14T20:11:04.103Z,100225.53
2022-08-14T20:14:01.850Z,100232.06
2022-08-14T20:17:06.981Z,100230.91
2022-08-14T20:20:20.914Z,100224.03
2022-08-14T20:23:38.607Z,100230.31
2022-08-14T20:26:46.916Z,100225.72
2022-08-14T20:33:47.600Z,100214.44
2022-08-14T20:37:01.660Z,100214.75
2022-08-14T20:40:23.821Z,100213.69
2022-08-14T20:43:47.615Z,100207.91
2022-08-14T20:47:00.890Z,100203.47
2022-08-14T20:50:18.656Z,100205.31
2022-08-14T20:53:32.879Z,100210.97
2022-08-14T20:56:40.637Z,100209.97
2022-08-14T20:59:50.555Z,100224.94
2022-08-14T21:02:55.377Z,100222.41
2022-08-14T21:06:19.503Z,100227.16
2022-08-14T21:10:03.111Z,100220.41
2022-08-14T21:13:24.652Z,100219.16
2022-08-14T21:16:25.957Z,100220.63
2022-08-14T21:19:38.753Z,100218.44
2022-08-14T21:22:45.002Z,100216.25
2022-08-14T21:25:50.962Z,100216.47
2022-08-14T21:28:53.947Z,100212.84
2022-08-14T21:31:57.237Z,100208.63
2022-08-14T21:35:08.456Z,100216.38
2022-08-14T21:38:17.950Z,100211.09
2022-08-14T21:41:42.345Z,100210.09
2022-08-14T21:44:51.318Z,100209.72
2022-08-14T21:47:56.710Z,100200.75
2022-08-14T21:51:55.002Z,100193.63
2022-08-14T21:54:49.544Z,100198.81
2022-08-14T21:58:52.299Z,100190.63
2022-08-14T22:01:16.237Z,100192.34
2022-08-14T22:04:33.331Z,100194.13
2022-08-14T22:07:39.931Z,100192.78
2022-08-14T22:10:47.815Z,100192.78
2022-08-14T22:13:55.949Z,100195.28
2022-08-14T22:17:12.840Z,100194.66
2022-08-14T22:20:19.757Z,100190.69
2022-08-14T22:23:27.231Z,100192.47
2022-08-14T22:26:32.439Z,100184.78
2022-08-14T22:29:35.858Z,100188.75
2022-08-14T22:32:56.664Z,100189.63
2022-08-14T22:36:25.473Z,100184.09
2022-08-14T22:40:17.792Z,100174.75
2022-08-14T22:43:00.155Z,100169.69
2022-08-14T22:46:06.182Z,100169.88
2022-08-14T22:50:30.169Z,100166.41
2022-08-14T22:52:49.291Z,100162.41
2022-08-14T22:55:54.283Z,100159.59
2022-08-14T22:58:59.185Z,100160.81
2022-08-14T23:02:11.661Z,100160.22
2022-08-14T23:05:15.475Z,100167.06
2022-08-14T23:09:00.399Z,100150.31
2022-08-14T23:11:46.720Z,100156.25
2022-08-14T23:14:50.308Z,100155.72
2022-08-14T23:17:54.368Z,100149.97
2022-08-14T23:20:57.662Z,100157.34
2022-08-14T23:24:00.672Z,100156.75
2022-08-14T23:27:09.247Z,100148.34
2022-08-14T23:30:31.579Z,100145.91
2022-08-14T23:33:45.605Z,100151.50
2022-08-14T23:36:57.775Z,100146.00
2022-08-14T23:40:01.888Z,100143.16
2022-08-14T23:43:09.278Z,100141.94
2022-08-14T23:46:14.959Z,100143.03
2022-08-14T23:49:20.286Z,100135.69
2022-08-14T23:52:50.819Z,100133.88
2022-08-14T23:55:47.392Z,100142.09
2022-08-14T23:59:01.732Z,100134.72
